createdAt,value
2023-05-24T00:00:02.773Z,7.30
2023-05-24T00:02:29.908Z,7.20
2023-05-24T00:05:01.088Z,7.20
2023-05-24T00:07:28.502Z,7.20
2023-05-24T00:09:55.628Z,7.10
2023-05-24T00:12:22.758Z,7.10
2023-05-24T00:14:49.831Z,7.10
2023-05-24T00:17:16.949Z,7.10
2023-05-24T00:19:44.061Z,7.00
2023-05-24T00:22:12.025Z,7.00
2023-05-24T00:24:39.211Z,6.90
2023-05-24T00:27:07.048Z,6.90
2023-05-24T00:29:34.201Z,6.90
2023-05-24T00:32:01.247Z,6.90
2023-05-24T00:34:28.375Z,6.80
2023-05-24T00:36:57.813Z,6.80
2023-05-24T00:39:24.909Z,6.70
2023-05-24T00:41:52.020Z,6.70
2023-05-24T00:44:19.112Z,6.70
2023-05-24T00:46:46.396Z,6.70
2023-05-24T00:49:13.644Z,6.70
2023-05-24T00:51:41.239Z,6.60
2023-05-24T00:54:08.440Z,6.60
2023-05-24T00:56:35.860Z,6.60
2023-05-24T00:59:03.073Z,6.60
2023-05-24T01:01:31.536Z,6.50
2023-05-24T01:03:59.808Z,6.50
2023-05-24T01:06:29.256Z,6.40
2023-05-24T01:09:08.411Z,6.40
2023-05-24T01:11:44.043Z,6.40
2023-05-24T01:14:37.001Z,6.30
2023-05-24T01:17:15.286Z,6.30
2023-05-24T01:19:53.048Z,6.30
2023-05-24T01:22:53.749Z,6.30
2023-05-24T01:25:26.388Z,6.20
2023-05-24T01:27:54.026Z,6.20
2023-05-24T01:30:21.273Z,6.20
2023-05-24T01:32:48.720Z,6.10
2023-05-24T01:35:15.813Z,6.10
2023-05-24T01:37:42.896Z,6.10
2023-05-24T01:40:11.319Z,6.00
2023-05-24T01:42:49.240Z,6.00
2023-05-24T01:45:40.180Z,6.00
2023-05-24T01:48:25.268Z,6.00
2023-05-24T01:51:07.074Z,5.90
2023-05-24T01:53:36.262Z,5.90
2023-05-24T01:56:06.442Z,5.90
2023-05-24T01:58:34.775Z,5.80
2023-05-24T02:01:02.836Z,5.80
2023-05-24T02:03:30.037Z,5.80
2023-05-24T02:05:57.227Z,5.80
2023-05-24T02:08:24.289Z,5.80
2023-05-24T02:10:51.470Z,5.70
2023-05-24T02:13:19.849Z,5.60
2023-05-24T02:15:48.060Z,5.60
2023-05-24T02:18:15.197Z,5.40
2023-05-24T02:20:42.378Z,5.30
2023-05-24T02:23:09.720Z,5.30
2023-05-24T02:25:36.786Z,5.20
2023-05-24T02:28:03.925Z,5.20
2023-05-24T02:30:31.104Z,5.20
2023-05-24T02:32:58.517Z,5.20
2023-05-24T02:35:26.074Z,5.20
2023-05-24T02:37:53.159Z,5.10
2023-05-24T02:40:20.225Z,5.00
2023-05-24T02:42:47.390Z,5.00
2023-05-24T02:45:14.510Z,4.90
2023-05-24T02:47:41.717Z,4.90
2023-05-24T02:50:09.323Z,4.90
2023-05-24T02:52:36.483Z,4.90
2023-05-24T02:55:04.204Z,4.90
2023-05-24T02:57:34.307Z,4.80
2023-05-24T03:00:01.398Z,4.70
2023-05-24T03:02:34.303Z,4.70
2023-05-24T03:05:01.482Z,4.70
2023-05-24T03:07:28.605Z,4.80
2023-05-24T03:09:55.729Z,4.80
2023-05-24T03:12:22.879Z,4.70
2023-05-24T03:14:49.993Z,4.60
2023-05-24T03:17:17.195Z,4.60
2023-05-24T03:19:44.409Z,4.60
2023-05-24T03:22:11.552Z,4.60
2023-05-24T03:24:38.623Z,4.60
2023-05-24T03:27:06.937Z,4.70
2023-05-24T03:29:34.074Z,4.70
2023-05-24T03:32:01.176Z,4.70
2023-05-24T03:34:28.419Z,4.80
2023-05-24T03:36:55.440Z,4.80
2023-05-24T03:39:22.551Z,4.80
2023-05-24T03:41:49.672Z,4.90
2023-05-24T03:44:16.717Z,4.90
2023-05-24T03:46:43.781Z,4.90
2023-05-24T03:49:10.827Z,5.00
2023-05-24T03:51:37.926Z,5.00
2023-05-24T03:54:05.074Z,5.00
2023-05-24T03:56:32.201Z,5.10
2023-05-24T03:59:03.905Z,5.20
2023-05-24T04:01:35.189Z,5.30
2023-05-24T04:04:06.126Z,5.50
2023-05-24T04:06:36.925Z,5.60
2023-05-24T04:09:06.120Z,5.90
2023-05-24T04:11:33.339Z,6.10
2023-05-24T04:14:00.826Z,6.30
2023-05-24T04:16:28.723Z,6.50
2023-05-24T04:18:56.484Z,6.70
2023-05-24T04:21:25.211Z,6.80
2023-05-24T04:23:52.435Z,7.10
2023-05-24T04:26:21.415Z,7.30
2023-05-24T04:28:48.845Z,7.50
2023-05-24T04:31:16.803Z,7.70
2023-05-24T04:33:44.227Z,7.90
2023-05-24T04:36:12.230Z,8.20
2023-05-24T04:38:39.850Z,8.30
2023-05-24T04:41:07.267Z,8.50
2023-05-24T04:43:35.174Z,8.90
2023-05-24T04:46:02.459Z,9.00
2023-05-24T04:48:29.646Z,9.30
2023-05-24T04:50:58.621Z,9.60
2023-05-24T04:53:25.906Z,9.80
2023-05-24T04:55:53.411Z,10.00
2023-05-24T04:58:20.766Z,10.20
2023-05-24T05:00:48.691Z,10.50
2023-05-24T05:03:16.271Z,10.70
2023-05-24T05:05:43.531Z,10.70
2023-05-24T05:08:10.748Z,10.70
2023-05-24T05:10:37.818Z,10.80
2023-05-24T05:13:04.965Z,10.70
2023-05-24T05:15:32.873Z,11.10
2023-05-24T05:18:00.593Z,11.30
2023-05-24T05:20:28.952Z,11.40
2023-05-24T05:22:56.069Z,11.70
2023-05-24T05:25:23.188Z,11.80
2023-05-24T05:27:50.444Z,12.10
2023-05-24T05:30:17.641Z,12.00
2023-05-24T05:32:44.809Z,12.20
2023-05-24T05:35:11.992Z,12.50
2023-05-24T05:37:39.070Z,12.30
2023-05-24T05:40:06.983Z,12.80
2023-05-24T05:42:34.082Z,12.70
2023-05-24T05:45:01.199Z,12.70
2023-05-24T05:47:28.313Z,12.90
2023-05-24T05:49:55.528Z,13.00
2023-05-24T05:52:22.619Z,13.20
2023-05-24T05:54:49.745Z,13.20
2023-05-24T05:57:19.777Z,13.00
2023-05-24T05:59:46.847Z,12.40
2023-05-24T06:02:13.983Z,11.90
2023-05-24T06:04:41.178Z,11.80
2023-05-24T06:07:08.350Z,12.40
2023-05-24T06:09:35.459Z,13.10
2023-05-24T06:12:02.594Z,12.70
2023-05-24T06:14:29.989Z,13.30
2023-05-24T06:16:58.017Z,13.40
2023-05-24T06:19:27.611Z,13.10
2023-05-24T06:21:54.708Z,13.30
2023-05-24T06:24:21.787Z,13.60
2023-05-24T06:26:50.357Z,13.80
2023-05-24T06:29:19.788Z,13.90
2023-05-24T06:31:47.781Z,14.00
2023-05-24T06:34:19.097Z,13.80
2023-05-24T06:36:48.032Z,14.00
2023-05-24T06:39:16.660Z,14.00
2023-05-24T06:41:45.052Z,14.00
2023-05-24T06:44:12.239Z,14.00
2023-05-24T06:46:40.226Z,13.80
2023-05-24T06:49:07.520Z,13.70
2023-05-24T06:51:34.880Z,13.70
2023-05-24T06:54:03.148Z,14.00
2023-05-24T06:56:30.432Z,14.10
2023-05-24T06:58:57.730Z,14.80
2023-05-24T07:01:24.909Z,14.80
2023-05-24T07:03:52.046Z,14.60
2023-05-24T07:06:19.179Z,14.10
2023-05-24T07:08:46.757Z,13.70
2023-05-24T07:11:14.067Z,12.90
2023-05-24T07:13:41.288Z,12.10
2023-05-24T07:16:08.400Z,11.70
2023-05-24T07:18:35.473Z,11.80
2023-05-24T07:21:02.587Z,11.40
2023-05-24T07:23:29.638Z,11.10
2023-05-24T07:25:56.770Z,11.10
2023-05-24T07:28:23.974Z,11.00
2023-05-24T07:30:51.921Z,10.90
2023-05-24T07:33:19.442Z,11.40
2023-05-24T07:35:51.485Z,12.60
2023-05-24T07:38:19.155Z,12.80
2023-05-24T07:40:46.372Z,12.30
2023-05-24T07:43:13.475Z,12.00
2023-05-24T07:45:40.955Z,12.00
2023-05-24T07:48:08.318Z,12.00
2023-05-24T07:50:35.450Z,11.80
2023-05-24T07:53:02.520Z,11.70
2023-05-24T07:55:29.607Z,11.50
2023-05-24T07:57:56.963Z,11.70
2023-05-24T08:00:24.322Z,11.80
2023-05-24T08:02:52.475Z,11.70
2023-05-24T08:05:19.745Z,11.80
2023-05-24T08:07:46.858Z,11.90
2023-05-24T08:10:14.151Z,12.40
2023-05-24T08:12:42.298Z,12.80
2023-05-24T08:15:09.899Z,12.90
2023-05-24T08:17:38.837Z,13.30
2023-05-24T08:20:10.171Z,13.00
2023-05-24T08:22:37.936Z,12.90
2023-05-24T08:25:06.983Z,13.00
2023-05-24T08:27:37.973Z,13.00
2023-05-24T08:30:05.864Z,12.80
2023-05-24T08:32:33.103Z,12.90
2023-05-24T08:35:14.751Z,12.80
2023-05-24T08:37:46.336Z,12.60
2023-05-24T08:40:13.783Z,12.50
2023-05-24T08:42:42.277Z,12.50
2023-05-24T08:45:12.502Z,12.10
2023-05-24T08:47:40.493Z,12.30
2023-05-24T08:50:08.823Z,12.20
2023-05-24T08:52:36.549Z,12.10
2023-05-24T08:55:06.965Z,12.20
2023-05-24T08:57:35.093Z,12.40
2023-05-24T09:00:02.351Z,12.40
2023-05-24T09:02:32.036Z,12.70
2023-05-24T09:04:59.916Z,12.80
2023-05-24T09:07:27.129Z,12.90
2023-05-24T09:10:01.249Z,12.90
2023-05-24T09:12:37.360Z,12.90
2023-05-24T09:15:07.889Z,12.80
2023-05-24T09:17:39.356Z,12.70
2023-05-24T09:20:10.854Z,12.50
2023-05-24T09:22:42.022Z,12.40
2023-05-24T09:25:11.430Z,12.60
2023-05-24T09:27:39.193Z,12.60
2023-05-24T09:30:11.119Z,13.40
2023-05-24T09:32:38.855Z,13.50
2023-05-24T09:35:10.122Z,13.50
2023-05-24T09:37:39.097Z,13.20
2023-05-24T09:40:11.079Z,13.30
2023-05-24T09:42:38.543Z,13.40
2023-05-24T09:45:09.416Z,13.40
2023-05-24T09:47:37.939Z,13.40
2023-05-24T09:50:13.070Z,13.50
2023-05-24T09:52:41.209Z,13.20
2023-05-24T09:55:21.703Z,13.20
2023-05-24T09:58:02.483Z,13.20
2023-05-24T10:00:31.203Z,13.10
2023-05-24T10:03:08.292Z,13.10
2023-05-24T10:05:36.544Z,13.20
2023-05-24T10:08:06.986Z,13.20
2023-05-24T10:10:34.325Z,13.30
2023-05-24T10:13:02.724Z,13.40
2023-05-24T10:15:31.018Z,13.30
2023-05-24T10:18:00.368Z,13.40
2023-05-24T10:20:28.679Z,13.60
2023-05-24T10:23:03.328Z,13.90
2023-05-24T10:25:32.781Z,14.30
2023-05-24T10:28:05.349Z,14.50
2023-05-24T10:30:35.426Z,14.10
2023-05-24T10:33:05.152Z,14.00
2023-05-24T10:35:34.251Z,14.20
2023-05-24T10:38:08.770Z,14.30
2023-05-24T10:40:41.085Z,14.00
2023-05-24T10:43:09.865Z,13.60
2023-05-24T10:45:41.770Z,13.30
2023-05-24T10:48:29.090Z,13.40
2023-05-24T10:50:56.624Z,13.60
2023-05-24T10:53:26.473Z,13.70
2023-05-24T10:55:57.971Z,13.60
2023-05-24T10:58:44.062Z,13.60
2023-05-24T11:01:32.295Z,13.60
2023-05-24T11:04:08.857Z,13.60
2023-05-24T11:06:51.120Z,14.20
2023-05-24T11:09:20.509Z,15.00
2023-05-24T11:11:50.205Z,14.90
2023-05-24T11:14:24.560Z,14.70
2023-05-24T11:16:52.159Z,14.40
2023-05-24T11:19:22.267Z,14.00
2023-05-24T11:21:51.804Z,13.70
2023-05-24T11:24:20.846Z,13.50
2023-05-24T11:26:48.074Z,13.20
2023-05-24T11:29:21.245Z,13.00
2023-05-24T11:31:52.849Z,12.80
2023-05-24T11:34:23.990Z,12.80
2023-05-24T11:36:55.637Z,13.00
2023-05-24T11:39:23.889Z,13.30
2023-05-24T11:41:51.247Z,13.40
2023-05-24T11:44:21.903Z,13.70
2023-05-24T11:46:48.998Z,14.20
2023-05-24T11:49:17.538Z,14.70
2023-05-24T11:51:44.888Z,14.80
2023-05-24T11:54:12.089Z,14.60
2023-05-24T11:56:39.278Z,14.70
2023-05-24T11:59:21.286Z,14.50
2023-05-24T12:01:48.370Z,14.50
2023-05-24T12:04:15.589Z,14.50
2023-05-24T12:06:44.598Z,14.50
2023-05-24T12:09:16.822Z,14.50
2023-05-24T12:11:47.550Z,14.90
2023-05-24T12:14:16.679Z,14.90
2023-05-24T12:16:44.700Z,14.60
2023-05-24T12:21:55.271Z,14.10
2023-05-24T12:24:24.507Z,14.00
2023-05-24T12:26:51.903Z,14.00
2023-05-24T12:29:20.403Z,14.20
2023-05-24T12:31:50.774Z,14.30
2023-05-24T12:34:21.305Z,14.50
2023-05-24T12:36:48.830Z,14.30
2023-05-24T12:39:19.632Z,14.50
2023-05-24T12:41:53.367Z,14.50
2023-05-24T12:44:53.137Z,14.10
2023-05-24T12:47:20.338Z,14.20
2023-05-24T12:49:47.640Z,14.40
2023-05-24T12:52:14.981Z,14.60
2023-05-24T12:54:42.165Z,14.90
2023-05-24T12:57:09.317Z,14.60
2023-05-24T12:59:37.483Z,14.50
2023-05-24T13:02:04.717Z,14.40
2023-05-24T13:04:33.991Z,14.30
2023-05-24T13:07:03.131Z,14.30
2023-05-24T13:09:30.261Z,14.10
2023-05-24T13:11:57.462Z,14.00
2023-05-24T13:14:24.584Z,13.70
2023-05-24T13:16:51.849Z,13.70
2023-05-24T13:19:19.285Z,13.90
2023-05-24T13:21:46.421Z,14.00
2023-05-24T13:24:16.331Z,14.00
2023-05-24T13:26:43.946Z,14.00
2023-05-24T13:31:41.968Z,14.30
2023-05-24T13:34:11.389Z,14.20
2023-05-24T13:36:38.770Z,14.20
2023-05-24T13:41:37.949Z,13.90
2023-05-24T13:44:05.342Z,13.70
2023-05-24T13:46:32.881Z,13.70
2023-05-24T13:49:00.145Z,13.80
2023-05-24T13:51:27.533Z,14.00
2023-05-24T13:53:55.720Z,14.10
2023-05-24T13:56:24.356Z,13.90
2023-05-24T13:58:52.566Z,14.20
2023-05-24T14:01:20.182Z,14.90
2023-05-24T14:03:47.403Z,15.70
2023-05-24T14:06:14.697Z,15.10
2023-05-24T14:08:42.668Z,15.00
2023-05-24T14:11:10.088Z,14.80
2023-05-24T14:16:08.904Z,14.30
2023-05-24T14:18:36.628Z,14.10
2023-05-24T14:21:04.101Z,13.90
2023-05-24T14:23:32.174Z,13.70
2023-05-24T14:25:59.752Z,13.70
2023-05-24T14:28:27.155Z,13.80
2023-05-24T14:30:54.336Z,14.00
2023-05-24T14:33:21.481Z,14.10
2023-05-24T14:35:49.194Z,14.20
2023-05-24T14:38:16.690Z,14.20
2023-05-24T14:40:47.596Z,14.00
2023-05-24T14:43:15.133Z,14.20
2023-05-24T14:45:43.138Z,14.40
2023-05-24T14:48:11.878Z,14.50
2023-05-24T14:50:40.582Z,14.90
2023-05-24T14:53:12.028Z,14.90
2023-05-24T14:55:41.376Z,15.10
2023-05-24T14:58:09.473Z,15.60
2023-05-24T15:00:36.997Z,15.70
2023-05-24T15:03:06.179Z,15.50
2023-05-24T15:05:33.862Z,15.60
2023-05-24T15:08:01.169Z,15.90
2023-05-24T15:10:28.364Z,15.80
2023-05-24T15:12:55.587Z,15.50
2023-05-24T15:15:23.596Z,15.20
2023-05-24T15:17:51.245Z,14.70
2023-05-24T15:20:19.565Z,14.30
2023-05-24T15:22:47.070Z,14.20
2023-05-24T15:25:14.568Z,14.10
2023-05-24T15:27:41.671Z,14.20
2023-05-24T15:30:09.333Z,14.20
2023-05-24T15:32:36.485Z,14.00
2023-05-24T15:35:04.658Z,14.00
2023-05-24T15:37:32.077Z,14.30
2023-05-24T15:39:59.182Z,14.20
2023-05-24T15:42:26.299Z,14.00
2023-05-24T15:44:53.530Z,14.20
2023-05-24T15:47:22.478Z,14.10
2023-05-24T15:49:50.051Z,14.00
2023-05-24T15:52:17.418Z,14.20
2023-05-24T15:54:44.645Z,14.10
2023-05-24T15:57:11.849Z,13.90
2023-05-24T15:59:39.867Z,13.80
2023-05-24T16:02:07.345Z,13.90
2023-05-24T16:04:34.693Z,14.00
2023-05-24T16:07:01.803Z,13.90
2023-05-24T16:09:28.939Z,13.80
2023-05-24T16:11:56.097Z,13.80
2023-05-24T16:14:23.275Z,13.70
2023-05-24T16:16:50.464Z,13.70
2023-05-24T16:19:17.602Z,13.90
2023-05-24T16:21:44.859Z,14.10
2023-05-24T16:24:11.996Z,14.10
2023-05-24T16:26:39.158Z,14.20
2023-05-24T16:29:07.273Z,14.20
2023-05-24T16:31:34.438Z,14.20
2023-05-24T16:34:01.856Z,13.90
2023-05-24T16:36:29.194Z,13.70
2023-05-24T16:38:56.325Z,13.70
2023-05-24T16:41:23.507Z,13.60
2023-05-24T16:43:50.738Z,13.50
2023-05-24T16:46:18.890Z,13.40
2023-05-24T16:48:46.176Z,13.30
2023-05-24T16:51:13.633Z,13.20
2023-05-24T16:53:40.688Z,13.10
2023-05-24T16:56:07.868Z,13.00
2023-05-24T16:58:34.941Z,13.00
2023-05-24T17:01:02.067Z,13.00
2023-05-24T17:03:29.682Z,12.90
2023-05-24T17:06:03.465Z,12.90
2023-05-24T17:08:35.744Z,12.80
2023-05-24T17:11:06.580Z,12.80
2023-05-24T17:13:34.349Z,12.90
2023-05-24T17:16:03.591Z,13.00
2023-05-24T17:18:31.396Z,13.10
2023-05-24T17:21:00.703Z,13.10
2023-05-24T17:23:30.903Z,13.00
2023-05-24T17:25:58.783Z,13.00
2023-05-24T17:28:29.905Z,13.00
2023-05-24T17:30:58.751Z,12.90
2023-05-24T17:33:28.160Z,12.80
2023-05-24T17:36:02.981Z,12.80
2023-05-24T17:38:33.248Z,12.80
2023-05-24T17:41:00.468Z,12.90
2023-05-24T17:43:29.335Z,12.90
2023-05-24T17:46:03.666Z,12.80
2023-05-24T17:48:35.442Z,12.80
2023-05-24T17:51:07.100Z,12.70
2023-05-24T17:53:35.789Z,12.70
2023-05-24T17:56:03.768Z,12.70
2023-05-24T17:58:33.066Z,12.60
2023-05-24T18:01:00.307Z,12.50
2023-05-24T18:03:27.624Z,12.50
2023-05-24T18:05:54.841Z,12.40
2023-05-24T18:08:22.650Z,12.40
2023-05-24T18:10:49.694Z,12.40
2023-05-24T18:13:20.533Z,12.40
2023-05-24T18:15:48.104Z,12.30
2023-05-24T18:18:16.299Z,12.30
2023-05-24T18:20:44.168Z,12.30
2023-05-24T18:23:11.356Z,12.30
2023-05-24T18:25:38.620Z,12.20
2023-05-24T18:28:05.830Z,12.20
2023-05-24T18:30:32.878Z,12.10
2023-05-24T18:35:30.350Z,11.90
2023-05-24T18:37:57.414Z,11.80
2023-05-24T18:40:24.863Z,11.70
2023-05-24T18:42:52.262Z,11.60
2023-05-24T18:45:19.488Z,11.50
2023-05-24T18:47:46.758Z,11.50
2023-05-24T18:50:13.989Z,11.40
2023-05-24T18:52:41.067Z,11.30
2023-05-24T18:55:10.974Z,11.20
2023-05-24T18:57:38.660Z,11.10
2023-05-24T19:00:07.529Z,11.10
2023-05-24T19:02:39.677Z,11.00
2023-05-24T19:05:07.919Z,11.00
2023-05-24T19:07:37.589Z,11.00
2023-05-24T19:10:05.153Z,10.90
2023-05-24T19:12:32.415Z,10.80
2023-05-24T19:14:59.872Z,10.80
2023-05-24T19:17:27.097Z,10.80
2023-05-24T19:19:54.608Z,10.80
2023-05-24T19:22:21.774Z,10.80
2023-05-24T19:24:49.011Z,10.80
2023-05-24T19:27:16.239Z,10.80
2023-05-24T19:29:43.362Z,10.80
2023-05-24T19:32:11.850Z,10.70
2023-05-24T19:34:42.488Z,10.70
2023-05-24T19:37:11.490Z,10.60
2023-05-24T19:39:38.714Z,10.60
2023-05-24T19:42:06.776Z,10.60
2023-05-24T19:44:34.104Z,10.50
2023-05-24T19:47:01.261Z,10.50
2023-05-24T19:49:28.284Z,10.50
2023-05-24T19:51:55.476Z,10.50
2023-05-24T19:54:22.823Z,10.50
2023-05-24T19:56:52.113Z,10.50
2023-05-24T19:59:19.590Z,10.50
2023-05-24T20:01:46.850Z,10.40
2023-05-24T20:04:14.448Z,10.40
2023-05-24T20:06:41.747Z,10.30
2023-05-24T20:09:08.911Z,10.30
2023-05-24T20:11:36.065Z,10.30
2023-05-24T20:14:03.328Z,10.20
2023-05-24T20:16:31.459Z,10.20
2023-05-24T20:18:58.640Z,10.10
2023-05-24T20:21:25.971Z,10.00
2023-05-24T20:23:58.617Z,9.90
2023-05-24T20:26:26.485Z,9.80
2023-05-24T20:28:53.870Z,9.70
2023-05-24T20:31:21.178Z,9.60
2023-05-24T20:33:51.687Z,9.50
2023-05-24T20:36:20.466Z,9.50
2023-05-24T20:38:47.796Z,9.40
2023-05-24T20:41:15.825Z,9.30
2023-05-24T20:43:42.938Z,9.30
2023-05-24T20:46:10.091Z,9.30
2023-05-24T20:48:47.174Z,9.30
2023-05-24T20:51:14.322Z,9.30
2023-05-24T20:53:41.448Z,9.30
2023-05-24T20:56:08.507Z,9.30
2023-05-24T20:58:35.623Z,9.30
2023-05-24T21:01:02.759Z,9.30
2023-05-24T21:03:30.193Z,9.30
2023-05-24T21:05:57.434Z,9.20
2023-05-24T21:08:24.544Z,9.20
2023-05-24T21:10:52.329Z,9.20
2023-05-24T21:13:20.660Z,9.20
2023-05-24T21:15:48.089Z,9.20
2023-05-24T21:18:15.597Z,9.20
2023-05-24T21:20:42.645Z,9.20
2023-05-24T21:23:10.923Z,9.30
2023-05-24T21:25:38.067Z,9.20
2023-05-24T21:28:05.163Z,9.20
2023-05-24T21:30:32.678Z,9.20
2023-05-24T21:32:59.883Z,9.20
2023-05-24T21:35:27.968Z,9.20
2023-05-24T21:37:55.144Z,9.20
2023-05-24T21:40:22.563Z,9.20
2023-05-24T21:42:49.635Z,9.20
2023-05-24T21:45:16.794Z,9.20
2023-05-24T21:47:43.972Z,9.30
2023-05-24T21:50:11.458Z,9.30
2023-05-24T21:52:39.514Z,9.20
2023-05-24T21:55:06.937Z,9.30
2023-05-24T21:57:34.069Z,9.20
2023-05-24T22:00:01.592Z,9.20
2023-05-24T22:02:30.446Z,9.20
2023-05-24T22:04:57.690Z,9.20
2023-05-24T22:07:24.805Z,9.20
2023-05-24T22:09:51.908Z,9.20
2023-05-24T22:12:19.068Z,9.20
2023-05-24T22:14:46.286Z,9.20
2023-05-24T22:17:14.378Z,9.10
2023-05-24T22:19:41.522Z,9.10
2023-05-24T22:22:10.054Z,9.00
2023-05-24T22:24:37.213Z,9.00
2023-05-24T22:27:04.913Z,8.90
2023-05-24T22:29:31.962Z,8.90
2023-05-24T22:31:59.116Z,8.90
2023-05-24T22:34:30.240Z,8.90
2023-05-24T22:36:57.920Z,8.90
2023-05-24T22:39:25.232Z,8.80
2023-05-24T22:41:53.202Z,8.70
2023-05-24T22:44:20.498Z,8.70
2023-05-24T22:46:53.864Z,8.60
2023-05-24T22:49:21.650Z,8.50
2023-05-24T22:51:53.645Z,8.40
2023-05-24T22:54:21.138Z,8.30
2023-05-24T22:56:48.378Z,8.20
2023-05-24T22:59:15.496Z,8.10
2023-05-24T23:01:44.839Z,8.00
2023-05-24T23:04:20.449Z,7.90
2023-05-24T23:06:53.483Z,7.80
2023-05-24T23:09:29.401Z,7.70
2023-05-24T23:11:58.966Z,7.70
2023-05-24T23:14:26.048Z,7.70
2023-05-24T23:16:53.163Z,7.70
2023-05-24T23:19:20.237Z,7.80
2023-05-24T23:21:47.661Z,7.80
2023-05-24T23:24:16.057Z,7.80
2023-05-24T23:26:43.603Z,7.80
2023-05-24T23:29:10.981Z,7.80
2023-05-24T23:31:41.745Z,7.80
2023-05-24T23:34:08.916Z,7.90
2023-05-24T23:36:36.719Z,8.00
2023-05-24T23:39:04.111Z,8.00
2023-05-24T23:41:31.156Z,8.10
2023-05-24T23:43:58.251Z,8.10
2023-05-24T23:46:25.319Z,8.10
2023-05-24T23:48:52.402Z,8.20
2023-05-24T23:51:20.450Z,8.20
2023-05-24T23:53:47.619Z,8.30
2023-05-24T23:56:14.796Z,8.30
2023-05-24T23:58:42.122Z,8.30
